createdAt,value
2019-04-01T00:00:10.118Z,84.94
2019-04-01T00:01:10.005Z,85.04
2019-04-01T00:02:09.909Z,84.56
2019-04-01T00:03:09.802Z,84.19
2019-04-01T00:04:09.702Z,84.09
2019-04-01T00:05:09.619Z,84.09
2019-04-01T00:06:09.498Z,83.90
2019-04-01T00:07:09.400Z,83.62
2019-04-01T00:08:09.307Z,83.90
2019-04-01T00:09:09.199Z,83.81
2019-04-01T00:10:09.114Z,83.90
2019-04-01T00:11:08.996Z,84.66
2019-04-01T00:12:08.896Z,83.71
2019-04-01T00:13:08.796Z,84.00
2019-04-01T00:14:08.696Z,83.90
2019-04-01T00:15:08.611Z,83.90
2019-04-01T00:16:08.494Z,83.81
2019-04-01T00:17:08.397Z,83.81
2019-04-01T00:18:08.293Z,83.14
2019-04-01T00:19:08.192Z,83.43
2019-04-01T00:20:08.112Z,82.86
2019-04-01T00:21:07.991Z,82.76
2019-04-01T00:22:07.909Z,83.05
2019-04-01T00:23:07.922Z,82.67
2019-04-01T00:24:07.701Z,82.57
2019-04-01T00:25:07.605Z,82.76
2019-04-01T00:26:07.500Z,83.05
2019-04-01T00:27:07.388Z,82.10
2019-04-01T00:28:07.288Z,82.01
2019-04-01T00:29:07.185Z,82.67
2019-04-01T00:30:07.101Z,82.48
2019-04-01T00:31:06.990Z,82.76
2019-04-01T00:32:06.883Z,82.29
2019-04-01T00:33:06.782Z,82.67
2019-04-01T00:34:06.714Z,81.44
2019-04-01T00:35:06.585Z,82.39
2019-04-01T00:36:06.496Z,82.86
2019-04-01T00:37:06.378Z,82.01
2019-04-01T00:38:06.281Z,82.20
2019-04-01T00:39:06.178Z,81.87
2019-04-01T00:40:06.094Z,81.96
2019-04-01T00:41:05.975Z,82.06
2019-04-01T00:42:05.874Z,81.82
2019-04-01T00:43:05.772Z,81.77
2019-04-01T00:44:05.674Z,81.44
2019-04-01T00:45:05.573Z,81.34
2019-04-01T00:46:05.488Z,81.34
2019-04-01T00:47:05.376Z,81.34
2019-04-01T00:48:05.270Z,81.30
2019-04-01T00:49:05.175Z,81.49
2019-04-01T00:50:05.068Z,81.49
2019-04-01T00:51:04.981Z,80.74
2019-04-01T00:52:04.868Z,80.83
2019-04-01T00:53:04.766Z,81.12
2019-04-01T00:54:04.664Z,80.45
2019-04-01T00:55:04.563Z,79.79
2019-04-01T00:56:04.486Z,80.36
2019-04-01T00:57:04.361Z,80.17
2019-04-01T00:58:04.259Z,79.41
2019-04-01T00:59:04.161Z,79.13
2019-04-01T01:00:04.059Z,78.46
2019-04-01T01:01:03.972Z,77.61
2019-04-01T01:02:03.857Z,76.95
2019-04-01T01:03:03.753Z,76.95
2019-04-01T01:04:03.657Z,76.86
2019-04-01T01:05:03.554Z,76.95
2019-04-01T01:06:03.469Z,77.04
2019-04-01T01:07:03.348Z,77.04
2019-04-01T01:08:03.246Z,76.95
2019-04-01T01:09:03.148Z,76.76
2019-04-01T01:10:03.070Z,76.86
2019-04-01T01:11:02.962Z,76.86
2019-04-01T01:12:02.845Z,77.04
2019-04-01T01:13:02.743Z,77.23
2019-04-01T01:14:02.646Z,76.57
2019-04-01T01:15:02.540Z,76.67
2019-04-01T01:16:02.464Z,76.86
2019-04-01T01:17:02.339Z,76.38
2019-04-01T01:18:02.246Z,76.29
2019-04-01T01:19:02.255Z,76.38
2019-04-01T01:20:02.041Z,76.48
2019-04-01T01:21:01.951Z,75.53
2019-04-01T01:22:01.833Z,75.15
2019-04-01T01:23:01.731Z,75.24
2019-04-01T01:24:01.634Z,75.15
2019-04-01T01:25:01.529Z,75.15
2019-04-01T01:26:01.555Z,74.58
2019-04-01T01:27:01.334Z,74.30
2019-04-01T01:28:01.230Z,74.33
2019-04-01T01:29:01.126Z,74.05
2019-04-01T01:30:01.026Z,74.05
2019-04-01T01:31:00.944Z,73.73
2019-04-01T01:32:00.823Z,73.49
2019-04-01T01:33:00.823Z,73.30
2019-04-01T01:34:00.623Z,73.11
2019-04-01T01:35:00.522Z,73.30
2019-04-01T01:36:00.437Z,73.58
2019-04-01T01:37:00.319Z,72.92
2019-04-01T01:38:00.225Z,72.63
2019-04-01T01:39:00.118Z,72.82
2019-04-01T01:40:00.345Z,72.73
2019-04-01T01:40:59.934Z,73.11
2019-04-01T01:41:59.815Z,73.01
2019-04-01T01:42:59.714Z,72.73
2019-04-01T01:43:59.616Z,72.82
2019-04-01T01:44:59.512Z,72.63
2019-04-01T01:45:59.430Z,72.73
2019-04-01T01:46:59.417Z,72.82
2019-04-01T01:47:59.212Z,72.86
2019-04-01T01:48:59.114Z,73.49
2019-04-01T01:49:59.013Z,72.77
2019-04-01T01:50:58.928Z,72.77
2019-04-01T01:51:58.810Z,73.52
2019-04-01T01:52:58.708Z,73.43
2019-04-01T01:53:58.714Z,73.52
2019-04-01T01:54:58.509Z,73.33
2019-04-01T01:55:58.428Z,73.52
2019-04-01T01:56:58.311Z,73.24
2019-04-01T01:57:58.207Z,73.14
2019-04-01T01:58:58.109Z,73.52
2019-04-01T01:59:58.009Z,73.90
2019-04-01T02:00:58.028Z,74.47
2019-04-01T02:01:57.807Z,74.37
2019-04-01T02:02:57.707Z,75.13
2019-04-01T02:03:57.609Z,75.23
2019-04-01T02:04:57.508Z,75.51
2019-04-01T02:05:57.425Z,75.51
2019-04-01T02:06:57.311Z,76.27
2019-04-01T02:07:57.313Z,76.65
2019-04-01T02:08:57.106Z,76.46
2019-04-01T02:09:57.005Z,77.03
2019-04-01T02:10:56.927Z,77.22
2019-04-01T02:11:56.813Z,77.12
2019-04-01T02:12:56.709Z,76.93
2019-04-01T02:13:56.608Z,77.12
2019-04-01T02:14:56.609Z,77.03
2019-04-01T02:15:56.425Z,77.78
2019-04-01T02:16:56.308Z,77.78
2019-04-01T02:17:56.208Z,77.59
2019-04-01T02:18:56.111Z,77.59
2019-04-01T02:19:56.008Z,77.50
2019-04-01T02:20:55.925Z,77.40
2019-04-01T02:21:55.917Z,77.69
2019-04-01T02:22:55.715Z,77.31
2019-04-01T02:23:55.609Z,77.31
2019-04-01T02:24:55.530Z,77.69
2019-04-01T02:25:55.411Z,77.22
2019-04-01T02:26:55.326Z,77.50
2019-04-01T02:27:55.338Z,77.40
2019-04-01T02:28:55.112Z,77.97
2019-04-01T02:29:55.011Z,77.88
2019-04-01T02:30:54.930Z,77.69
2019-04-01T02:31:54.813Z,77.69
2019-04-01T02:32:54.715Z,78.26
2019-04-01T02:33:54.624Z,78.26
2019-04-01T02:34:54.513Z,77.59
2019-04-01T02:35:54.414Z,77.69
2019-04-01T02:36:54.333Z,77.69
2019-04-01T02:37:54.214Z,77.59
2019-04-01T02:38:54.118Z,78.07
2019-04-01T02:39:54.109Z,78.26
2019-04-01T02:40:53.920Z,78.07
2019-04-01T02:41:53.837Z,78.35
2019-04-01T02:42:53.719Z,78.16
2019-04-01T02:43:53.615Z,78.35
2019-04-01T02:44:53.540Z,77.83
2019-04-01T02:45:53.419Z,77.69
2019-04-01T02:46:53.333Z,77.88
2019-04-01T02:47:53.218Z,78.26
2019-04-01T02:48:53.117Z,78.77
2019-04-01T02:49:53.314Z,78.67
2019-04-01T02:50:52.921Z,78.77
2019-04-01T02:51:52.836Z,78.30
2019-04-01T02:52:52.718Z,78.77
2019-04-01T02:53:52.622Z,78.96
2019-04-01T02:54:52.545Z,80.76
2019-04-01T02:55:52.422Z,80.86
2019-04-01T02:56:52.444Z,82.28
2019-04-01T02:57:52.221Z,82.85
2019-04-01T02:58:52.123Z,84.74
2019-04-01T02:59:52.029Z,84.46
2019-04-01T03:00:51.927Z,88.87
2019-04-01T03:01:51.842Z,89.25
2019-04-01T03:02:51.726Z,91.52
2019-04-01T03:03:51.628Z,91.71
2019-04-01T03:04:51.530Z,92.28
2019-04-01T03:05:51.460Z,95.50
2019-04-01T03:06:51.344Z,95.50
2019-04-01T03:07:51.232Z,94.84
2019-04-01T03:08:51.128Z,96.64
2019-04-01T03:09:51.029Z,95.88
2019-04-01T03:10:50.929Z,96.17
2019-04-01T03:11:50.848Z,95.98
2019-04-01T03:12:50.748Z,97.40
2019-04-01T03:13:50.630Z,97.78
2019-04-01T03:14:50.539Z,97.97
2019-04-01T03:15:50.432Z,96.92
2019-04-01T03:16:50.347Z,97.88
2019-04-01T03:17:50.229Z,97.59
2019-04-01T03:18:50.130Z,97.78
2019-04-01T03:19:50.046Z,98.07
2019-04-01T03:20:49.932Z,99.20
2019-04-01T03:21:49.849Z,98.07
2019-04-01T03:22:49.736Z,99.20
2019-04-01T03:23:49.655Z,98.73
2019-04-01T03:24:49.535Z,98.63
2019-04-01T03:25:49.438Z,97.88
2019-04-01T03:26:49.351Z,98.63
2019-04-01T03:27:49.247Z,99.99
2019-04-01T03:28:49.137Z,99.20
2019-04-01T03:29:49.038Z,99.11
2019-04-01T03:30:48.933Z,99.30
2019-04-01T03:31:48.880Z,99.11
2019-04-01T03:32:48.740Z,99.77
2019-04-01T03:33:48.641Z,99.87
2019-04-01T03:34:48.547Z,99.87
2019-04-01T03:35:48.439Z,99.39
2019-04-01T03:36:48.353Z,99.96
2019-04-01T03:37:48.237Z,99.96
2019-04-01T03:38:48.138Z,99.49
2019-04-01T03:39:48.049Z,99.87
2019-04-01T03:40:47.937Z,99.30
2019-04-01T03:41:47.853Z,99.30
2019-04-01T03:42:47.737Z,99.58
2019-04-01T03:43:47.638Z,99.99
2019-04-01T03:44:47.538Z,99.58
2019-04-01T03:45:47.437Z,99.49
2019-04-01T03:46:47.364Z,99.39
2019-04-01T03:47:47.236Z,99.87
2019-04-01T03:48:47.142Z,99.58
2019-04-01T03:49:47.035Z,99.77
2019-04-01T03:50:46.938Z,99.77
2019-04-01T03:51:46.854Z,99.99
2019-04-01T03:52:46.745Z,99.99
2019-04-01T03:53:46.646Z,99.20
2019-04-01T03:54:46.538Z,99.39
2019-04-01T03:55:46.437Z,99.96
2019-04-01T03:56:46.352Z,99.99
2019-04-01T03:57:46.246Z,99.96
2019-04-01T03:58:46.137Z,99.68
2019-04-01T03:59:46.169Z,99.87
2019-04-01T04:00:45.936Z,99.99
2019-04-01T04:01:45.855Z,99.99
2019-04-01T04:02:45.738Z,99.99
2019-04-01T04:03:45.636Z,99.99
2019-04-01T04:04:45.541Z,99.99
2019-04-01T04:05:45.440Z,99.99
2019-04-01T04:06:45.463Z,99.99
2019-04-01T04:07:45.245Z,99.96
2019-04-01T04:08:45.140Z,99.99
2019-04-01T04:09:45.037Z,99.99
2019-04-01T04:10:44.938Z,99.68
2019-04-01T04:11:44.855Z,99.96
2019-04-01T04:12:44.737Z,99.99
2019-04-01T04:13:44.746Z,99.99
2019-04-01T04:14:44.538Z,99.99
2019-04-01T04:15:44.437Z,99.99
2019-04-01T04:16:44.352Z,99.99
2019-04-01T04:17:44.257Z,99.99
2019-04-01T04:18:44.140Z,99.99
2019-04-01T04:19:44.038Z,99.99
2019-04-01T04:20:44.040Z,99.99
2019-04-01T04:21:43.840Z,99.99
2019-04-01T04:22:43.753Z,99.99
2019-04-01T04:23:43.638Z,99.99
2019-04-01T04:24:43.539Z,99.99
2019-04-01T04:25:43.441Z,99.99
2019-04-01T04:26:43.349Z,99.99
2019-04-01T04:27:43.372Z,99.99
2019-04-01T04:28:43.149Z,99.99
2019-04-01T04:29:43.046Z,99.99
2019-04-01T04:30:42.937Z,99.99
2019-04-01T04:31:42.840Z,99.99
2019-04-01T04:32:42.755Z,99.99
2019-04-01T04:33:42.637Z,99.99
2019-04-01T04:34:42.639Z,99.99
2019-04-01T04:35:42.439Z,99.99
2019-04-01T04:36:42.335Z,99.99
2019-04-01T04:37:42.254Z,99.99
2019-04-01T04:38:42.139Z,99.99
2019-04-01T04:39:42.034Z,99.99
2019-04-01T04:40:41.942Z,99.99
2019-04-01T04:41:41.934Z,99.99
2019-04-01T04:42:41.749Z,99.99
2019-04-01T04:43:41.632Z,99.99
2019-04-01T04:44:41.536Z,99.99
2019-04-01T04:45:41.436Z,99.99
2019-04-01T04:46:41.334Z,99.99
2019-04-01T04:47:41.249Z,99.99
2019-04-01T04:48:41.251Z,99.99
2019-04-01T04:49:41.034Z,99.99
2019-04-01T04:50:40.931Z,99.99
2019-04-01T04:51:40.833Z,99.99
2019-04-01T04:52:40.750Z,99.99
2019-04-01T04:53:40.637Z,99.99
2019-04-01T04:54:40.529Z,99.99
2019-04-01T04:55:40.528Z,99.99
2019-04-01T04:56:40.329Z,99.99
2019-04-01T04:57:40.244Z,99.99
2019-04-01T04:58:40.128Z,99.99
2019-04-01T04:59:40.029Z,99.99
2019-04-01T05:00:39.931Z,99.99
2019-04-01T05:01:39.825Z,99.99
2019-04-01T05:02:39.842Z,99.99
2019-04-01T05:03:39.626Z,99.99
2019-04-01T05:04:39.524Z,99.99
2019-04-01T05:05:39.428Z,99.99
2019-04-01T05:06:39.323Z,99.99
2019-04-01T05:07:39.245Z,99.99
2019-04-01T05:08:39.121Z,99.99
2019-04-01T05:09:39.120Z,99.99
2019-04-01T05:10:38.923Z,99.99
2019-04-01T05:11:38.824Z,99.99
2019-04-01T05:12:38.737Z,99.99
2019-04-01T05:13:38.627Z,99.99
2019-04-01T05:14:38.518Z,99.99
2019-04-01T05:15:38.417Z,99.99
2019-04-01T05:16:38.317Z,99.99
2019-04-01T05:17:38.235Z,99.99
2019-04-01T05:18:38.118Z,99.99
2019-04-01T05:19:38.016Z,99.99
2019-04-01T05:20:37.921Z,99.99
2019-04-01T05:21:37.816Z,99.99
2019-04-01T05:22:37.735Z,99.99
2019-04-01T05:23:37.616Z,99.99
2019-04-01T05:24:37.512Z,99.99
2019-04-01T05:25:37.412Z,99.99
2019-04-01T05:26:37.315Z,99.99
2019-04-01T05:27:37.241Z,99.99
2019-04-01T05:28:37.113Z,99.99
2019-04-01T05:29:37.010Z,99.99
2019-04-01T05:30:36.912Z,99.99
2019-04-01T05:31:36.811Z,99.99
2019-04-01T05:32:36.730Z,99.99
2019-04-01T05:33:36.613Z,99.99
2019-04-01T05:34:36.511Z,99.99
2019-04-01T05:35:36.422Z,99.99
2019-04-01T05:36:36.307Z,99.99
2019-04-01T05:37:36.223Z,99.99
2019-04-01T05:38:36.107Z,99.99
2019-04-01T05:39:36.009Z,99.99
2019-04-01T05:40:35.906Z,99.99
2019-04-01T05:41:35.809Z,99.99
2019-04-01T05:42:35.723Z,99.99
2019-04-01T05:43:35.606Z,99.99
2019-04-01T05:44:35.510Z,99.99
2019-04-01T05:45:35.405Z,99.99
2019-04-01T05:46:35.342Z,99.99
2019-04-01T05:47:35.223Z,99.99
2019-04-01T05:48:35.105Z,99.99
2019-04-01T05:49:35.005Z,99.99
2019-04-01T05:50:34.905Z,99.99
2019-04-01T05:51:34.813Z,99.99
2019-04-01T05:52:34.724Z,99.99
2019-04-01T05:53:34.607Z,99.99
2019-04-01T05:54:34.507Z,99.99
2019-04-01T05:55:34.407Z,99.99
2019-04-01T05:56:34.309Z,99.99
2019-04-01T05:57:34.211Z,99.99
2019-04-01T05:58:34.126Z,99.99
2019-04-01T05:59:34.015Z,99.99
2019-04-01T06:00:33.917Z,99.99
2019-04-01T06:01:33.810Z,99.99
2019-04-01T06:02:33.730Z,99.99
2019-04-01T06:03:33.613Z,99.99
2019-04-01T06:04:33.629Z,99.99
2019-04-01T06:05:33.411Z,99.99
2019-04-01T06:06:33.311Z,99.99
2019-04-01T06:07:33.218Z,99.99
2019-04-01T06:08:33.132Z,99.99
2019-04-01T06:09:33.014Z,99.99
2019-04-01T06:10:32.915Z,99.99
2019-04-01T06:11:32.813Z,99.99
2019-04-01T06:12:32.715Z,99.99
2019-04-01T06:13:32.630Z,99.99
2019-04-01T06:14:32.517Z,99.99
2019-04-01T06:15:32.420Z,99.99
2019-04-01T06:16:32.317Z,99.99
2019-04-01T06:17:32.217Z,99.99
2019-04-01T06:18:32.254Z,99.99
2019-04-01T06:19:32.021Z,99.99
2019-04-01T06:20:31.918Z,99.99
2019-04-01T06:21:31.821Z,99.99
2019-04-01T06:22:31.738Z,99.99
2019-04-01T06:23:31.638Z,99.99
2019-04-01T06:24:31.520Z,99.99
2019-04-01T06:25:31.582Z,99.99
2019-04-01T06:26:31.327Z,99.96
2019-04-01T06:27:31.734Z,99.77
2019-04-01T06:28:31.141Z,99.96
2019-04-01T06:29:31.022Z,99.99
2019-04-01T06:30:30.925Z,99.99
2019-04-01T06:31:30.828Z,99.96
2019-04-01T06:32:30.853Z,99.99
2019-04-01T06:33:30.647Z,99.99
2019-04-01T06:34:30.539Z,99.99
2019-04-01T06:35:30.432Z,99.99
2019-04-01T06:36:30.333Z,99.99
2019-04-01T06:37:30.234Z,99.99
2019-04-01T06:38:30.153Z,99.99
2019-04-01T06:39:30.144Z,99.99
2019-04-01T06:40:29.944Z,99.99
2019-04-01T06:41:29.841Z,99.99
2019-04-01T06:42:29.738Z,99.99
2019-04-01T06:43:29.661Z,99.99
2019-04-01T06:44:29.543Z,99.99
2019-04-01T06:45:29.447Z,99.99
2019-04-01T06:46:29.458Z,99.99
2019-04-01T06:47:29.250Z,99.99
2019-04-01T06:48:29.170Z,99.99
2019-04-01T06:49:29.055Z,99.99
2019-04-01T06:50:28.957Z,99.99
2019-04-01T06:51:28.860Z,99.99
2019-04-01T06:52:28.762Z,99.99
2019-04-01T06:53:28.826Z,99.99
2019-04-01T06:54:28.569Z,99.77
2019-04-01T06:55:28.473Z,99.40
2019-04-01T06:56:28.371Z,99.49
2019-04-01T06:57:28.276Z,99.40
2019-04-01T06:58:28.195Z,99.44
2019-04-01T06:59:28.083Z,98.97
2019-04-01T07:00:28.087Z,98.50
2019-04-01T07:01:27.888Z,98.50
2019-04-01T07:02:27.792Z,98.97
2019-04-01T07:03:27.710Z,98.12
2019-04-01T07:04:27.594Z,97.55
2019-04-01T07:05:27.498Z,97.55
2019-04-01T07:06:27.402Z,97.88
2019-04-01T07:07:27.413Z,97.78
2019-04-01T07:08:27.223Z,96.69
2019-04-01T07:09:27.112Z,96.45
2019-04-01T07:10:27.019Z,96.55
2019-04-01T07:11:27.023Z,96.45
2019-04-01T07:12:26.825Z,96.84
2019-04-01T07:13:26.743Z,96.26
2019-04-01T07:14:26.740Z,95.08
2019-04-01T07:15:26.536Z,94.32
2019-04-01T07:16:26.441Z,93.65
2019-04-01T07:17:26.343Z,93.65
2019-04-01T07:18:26.272Z,93.37
2019-04-01T07:19:26.154Z,93.55
2019-04-01T07:20:26.055Z,94.46
2019-04-01T07:21:26.075Z,94.98
2019-04-01T07:22:25.870Z,94.22
2019-04-01T07:23:25.792Z,93.55
2019-04-01T07:24:25.678Z,92.75
2019-04-01T07:25:25.581Z,92.46
2019-04-01T07:26:25.488Z,90.94
2019-04-01T07:27:25.517Z,91.13
2019-04-01T07:28:25.314Z,91.32
2019-04-01T07:29:25.201Z,91.37
2019-04-01T07:30:25.111Z,91.51
2019-04-01T07:31:25.014Z,91.22
2019-04-01T07:32:24.921Z,91.03
2019-04-01T07:33:24.853Z,91.89
2019-04-01T07:34:24.734Z,91.32
2019-04-01T07:35:24.643Z,91.13
2019-04-01T07:36:24.542Z,89.75
2019-04-01T07:37:24.450Z,89.51
2019-04-01T07:38:26.096Z,90.28
2019-04-01T07:39:24.261Z,90.70
2019-04-01T07:40:24.166Z,90.84
2019-04-01T07:41:24.201Z,91.51
2019-04-01T07:42:23.982Z,91.18
2019-04-01T07:43:23.901Z,91.22
2019-04-01T07:44:23.793Z,90.94
2019-04-01T07:45:23.701Z,91.22
2019-04-01T07:46:23.604Z,89.75
2019-04-01T07:47:23.510Z,89.70
2019-04-01T07:48:23.418Z,90.47
2019-04-01T07:49:23.340Z,90.47
2019-04-01T07:50:23.251Z,90.47
2019-04-01T07:51:23.137Z,89.99
2019-04-01T07:52:23.040Z,89.27
2019-04-01T07:53:22.949Z,88.56
2019-04-01T07:54:22.873Z,89.14
2019-04-01T07:55:22.764Z,89.70
2019-04-01T07:56:22.669Z,89.99
2019-04-01T07:57:22.575Z,88.94
2019-04-01T07:58:22.482Z,89.23
2019-04-01T07:59:22.404Z,89.51
2019-04-01T08:00:22.293Z,88.56
2019-04-01T08:01:22.201Z,89.94
2019-04-01T08:02:22.115Z,89.23
2019-04-01T08:03:22.014Z,89.14
2019-04-01T08:04:21.933Z,89.04
2019-04-01T08:05:21.823Z,88.75
2019-04-01T08:06:21.733Z,89.65
2019-04-01T08:07:21.636Z,88.70
2019-04-01T08:08:21.544Z,88.60
2019-04-01T08:09:21.467Z,88.13
2019-04-01T08:10:21.360Z,88.89
2019-04-01T08:11:21.264Z,88.23
2019-04-01T08:12:21.169Z,88.32
2019-04-01T08:13:21.079Z,88.46
2019-04-01T08:14:21.002Z,88.70
2019-04-01T08:15:21.462Z,88.04
2019-04-01T08:16:20.797Z,87.98
2019-04-01T08:17:20.703Z,86.65
2019-04-01T08:18:20.610Z,86.46
2019-04-01T08:19:20.536Z,85.80
2019-04-01T08:20:20.425Z,86.08
2019-04-01T08:21:20.330Z,86.32
2019-04-01T08:22:20.237Z,88.09
2019-04-01T08:23:20.145Z,89.70
2019-04-01T08:24:20.067Z,89.94
2019-04-01T08:25:19.959Z,88.04
2019-04-01T08:26:19.865Z,87.56
2019-04-01T08:27:19.774Z,87.18
2019-04-01T08:28:19.680Z,87.85
2019-04-01T08:29:29.965Z,87.71
2019-04-01T08:30:19.493Z,89.04
2019-04-01T08:31:19.407Z,89.23
2019-04-01T08:32:19.305Z,89.51
2019-04-01T08:33:19.234Z,89.61
2019-04-01T08:34:19.138Z,89.99
2019-04-01T08:35:19.027Z,89.23
2019-04-01T08:36:18.932Z,89.27
2019-04-01T08:37:18.845Z,88.75
2019-04-01T08:38:18.748Z,89.04
2019-04-01T08:39:18.669Z,88.33
2019-04-01T08:40:18.561Z,89.70
2019-04-01T08:41:18.466Z,90.37
2019-04-01T08:42:18.371Z,89.56
2019-04-01T08:43:18.278Z,90.28
2019-04-01T08:44:18.198Z,90.56
2019-04-01T08:45:18.194Z,89.42
2019-04-01T08:46:17.999Z,89.08
2019-04-01T08:47:17.902Z,88.04
2019-04-01T08:48:17.807Z,87.56
2019-04-01T08:49:17.731Z,87.37
2019-04-01T08:50:17.619Z,87.75
2019-04-01T08:51:17.529Z,88.13
2019-04-01T08:52:17.540Z,88.79
2019-04-01T08:53:17.341Z,88.09
2019-04-01T08:54:17.261Z,89.89
2019-04-01T08:55:17.154Z,89.89
2019-04-01T08:56:17.055Z,89.42
2019-04-01T08:57:16.994Z,89.23
2019-04-01T08:58:16.875Z,89.32
2019-04-01T08:59:16.902Z,89.84
2019-04-01T09:00:16.680Z,89.18
2019-04-01T09:01:16.587Z,89.47
2019-04-01T09:02:18.151Z,89.56
2019-04-01T09:03:16.399Z,88.51
2019-04-01T09:04:16.322Z,88.65
2019-04-01T09:05:16.209Z,87.94
2019-04-01T09:06:16.216Z,88.32
2019-04-01T09:07:16.028Z,88.32
2019-04-01T09:08:15.930Z,88.32
2019-04-01T09:09:15.859Z,89.47
2019-04-01T09:10:15.740Z,89.08
2019-04-01T09:11:15.647Z,88.27
2019-04-01T09:12:15.552Z,88.37
2019-04-01T09:13:15.578Z,87.41
2019-04-01T09:14:15.440Z,86.88
2019-04-01T09:15:15.282Z,86.27
2019-04-01T09:16:15.181Z,86.69
2019-04-01T09:17:15.086Z,86.03
2019-04-01T09:18:14.993Z,85.41
2019-04-01T09:19:14.915Z,86.08
2019-04-01T09:20:14.914Z,86.08
2019-04-01T09:21:14.709Z,87.56
2019-04-01T09:22:14.630Z,88.51
2019-04-01T09:23:14.527Z,88.79
2019-04-01T09:24:14.531Z,87.89
2019-04-01T09:25:14.338Z,87.23
2019-04-01T09:26:14.247Z,86.94
2019-04-01T09:27:14.258Z,87.60
2019-04-01T09:28:14.058Z,86.79
2019-04-01T09:29:13.980Z,85.31
2019-04-01T09:30:13.873Z,84.64
2019-04-01T09:31:13.789Z,84.50
2019-04-01T09:32:13.684Z,85.17
2019-04-01T09:33:13.591Z,85.55
2019-04-01T09:34:13.608Z,85.60
2019-04-01T09:35:13.422Z,87.13
2019-04-01T09:36:13.317Z,86.79
2019-04-01T09:37:13.227Z,85.60
2019-04-01T09:38:13.126Z,84.92
2019-04-01T09:39:13.035Z,85.21
2019-04-01T09:40:12.957Z,83.92
2019-04-01T09:41:13.539Z,83.06
2019-04-01T09:42:12.753Z,82.24
2019-04-01T09:43:14.283Z,82.53
2019-04-01T09:44:12.570Z,82.91
2019-04-01T09:45:12.492Z,82.24
2019-04-01T09:46:12.383Z,82.72
2019-04-01T09:47:12.295Z,82.34
2019-04-01T09:48:12.304Z,81.86
2019-04-01T09:49:12.115Z,81.67
2019-04-01T09:50:12.036Z,82.43
2019-04-01T09:51:11.926Z,82.92
2019-04-01T09:52:11.834Z,84.64
2019-04-01T09:53:11.768Z,85.83
2019-04-01T09:54:11.653Z,84.49
2019-04-01T09:55:11.691Z,83.87
2019-04-01T09:56:11.469Z,83.83
2019-04-01T09:57:18.001Z,83.06
2019-04-01T09:58:11.287Z,84.20
2019-04-01T09:59:11.197Z,85.06
2019-04-01T10:00:11.126Z,84.49
2019-04-01T10:01:11.225Z,84.16
2019-04-01T10:02:10.994Z,85.54
2019-04-01T10:03:10.833Z,85.16
2019-04-01T10:04:10.742Z,83.92
2019-04-01T10:05:10.668Z,83.92
2019-04-01T10:06:10.720Z,85.12
2019-04-01T10:07:10.471Z,86.60
2019-04-01T10:08:10.382Z,87.88
2019-04-01T10:09:10.287Z,86.16
2019-04-01T10:10:10.218Z,85.06
2019-04-01T10:11:12.585Z,85.01
2019-04-01T10:12:10.015Z,84.88
2019-04-01T10:13:09.927Z,85.83
2019-04-01T10:14:09.855Z,85.16
2019-04-01T10:15:09.761Z,85.11
2019-04-01T10:16:09.652Z,83.43
2019-04-01T10:17:09.570Z,81.96
2019-04-01T10:18:09.472Z,82.34
2019-04-01T10:19:09.381Z,82.53
2019-04-01T10:20:09.306Z,82.49
2019-04-01T10:21:09.200Z,82.87
2019-04-01T10:22:09.106Z,82.78
2019-04-01T10:23:09.016Z,82.68
2019-04-01T10:24:08.929Z,83.78
2019-04-01T10:25:08.851Z,84.26
2019-04-01T10:26:08.750Z,84.78
2019-04-01T10:27:08.654Z,85.31
2019-04-01T10:28:08.562Z,87.02
2019-04-01T10:29:08.470Z,86.36
2019-04-01T10:30:08.395Z,85.73
2019-04-01T10:31:08.289Z,85.83
2019-04-01T10:32:08.199Z,85.35
2019-04-01T10:33:08.110Z,86.36
2019-04-01T10:34:08.014Z,85.31
2019-04-01T10:35:07.947Z,84.49
2019-04-01T10:36:07.835Z,84.16
2019-04-01T10:37:07.744Z,83.05
2019-04-01T10:38:07.655Z,81.24
2019-04-01T10:39:07.562Z,82.52
2019-04-01T10:40:07.493Z,82.48
2019-04-01T10:41:07.381Z,82.90
2019-04-01T10:42:07.289Z,79.85
2019-04-01T10:43:07.199Z,79.94
2019-04-01T10:44:07.124Z,79.98
2019-04-01T10:45:07.035Z,80.19
2019-04-01T10:46:06.927Z,81.43
2019-04-01T10:47:06.862Z,80.91
2019-04-01T10:48:06.747Z,80.66
2019-04-01T10:49:06.693Z,82.09
2019-04-01T10:50:06.625Z,81.86
2019-04-01T10:51:06.517Z,82.09
2019-04-01T10:52:06.405Z,81.52
2019-04-01T10:53:06.326Z,80.13
2019-04-01T10:54:06.272Z,79.98
2019-04-01T10:55:06.194Z,78.45
2019-04-01T10:56:06.075Z,78.64
2019-04-01T10:57:05.996Z,77.40
2019-04-01T10:58:05.858Z,77.84
2019-04-01T10:59:05.821Z,78.64
2019-04-01T11:00:05.692Z,78.89
2019-04-01T11:01:05.609Z,78.99
2019-04-01T11:02:05.489Z,79.52
2019-04-01T11:03:06.217Z,79.94
2019-04-01T11:04:05.371Z,81.33
2019-04-01T11:05:05.248Z,80.22
2019-04-01T11:06:05.249Z,78.47
2019-04-01T11:07:05.106Z,80.13
2019-04-01T11:08:04.967Z,80.32
2019-04-01T11:09:04.890Z,80.46
2019-04-01T11:10:04.792Z,80.80
2019-04-01T11:11:04.690Z,81.09
2019-04-01T11:12:04.595Z,81.76
2019-04-01T11:13:04.508Z,80.36
2019-04-01T11:14:04.417Z,78.83
2019-04-01T11:15:04.345Z,78.89
2019-04-01T11:16:04.242Z,77.06
2019-04-01T11:17:04.709Z,76.67
2019-04-01T11:18:04.166Z,78.45
2019-04-01T11:19:03.975Z,79.36
2019-04-01T11:20:03.892Z,80.22
2019-04-01T11:21:04.984Z,80.80
2019-04-01T11:22:03.952Z,79.52
2019-04-01T11:23:05.021Z,79.94
2019-04-01T11:24:05.819Z,79.85
2019-04-01T11:25:03.565Z,78.83
2019-04-01T11:26:03.369Z,78.07
2019-04-01T11:27:03.261Z,78.16
2019-04-01T11:28:03.176Z,78.74
2019-04-01T11:29:03.082Z,78.41
2019-04-01T11:30:02.998Z,79.36
2019-04-01T11:31:02.959Z,80.41
2019-04-01T11:32:02.973Z,80.65
2019-04-01T11:33:02.751Z,79.46
2019-04-01T11:34:02.654Z,79.85
2019-04-01T11:35:02.555Z,80.57
2019-04-01T11:36:02.588Z,80.13
2019-04-01T11:37:02.393Z,79.98
2019-04-01T11:38:02.331Z,79.93
2019-04-01T11:39:02.311Z,77.82
2019-04-01T11:40:02.108Z,77.59
2019-04-01T11:41:02.083Z,78.68
2019-04-01T11:42:01.978Z,76.54
2019-04-01T11:43:04.981Z,77.40
2019-04-01T11:44:01.797Z,79.65
2019-04-01T11:45:05.513Z,79.60
2019-04-01T11:46:01.754Z,77.97
2019-04-01T11:47:01.480Z,79.64
2019-04-01T11:48:01.398Z,77.72
2019-04-01T11:49:01.324Z,77.63
2019-04-01T11:50:01.213Z,77.44
2019-04-01T11:51:01.190Z,77.36
2019-04-01T11:52:01.066Z,78.07
2019-04-01T11:53:01.054Z,78.45
2019-04-01T11:54:00.858Z,79.12
2019-04-01T11:55:00.769Z,78.74
2019-04-01T11:56:00.697Z,79.54
2019-04-01T11:57:00.591Z,77.87
2019-04-01T11:58:00.503Z,78.79
2019-04-01T11:59:00.417Z,79.46
2019-04-01T12:00:00.494Z,79.12
2019-04-01T12:01:00.252Z,78.16
2019-04-01T12:02:00.146Z,77.25
2019-04-01T12:03:00.059Z,78.01
2019-04-01T12:03:59.971Z,77.53
2019-04-01T12:04:59.882Z,77.15
2019-04-01T12:05:59.810Z,78.24
2019-04-01T12:07:02.008Z,77.44
2019-04-01T12:07:59.614Z,76.57
2019-04-01T12:08:59.528Z,77.15
2019-04-01T12:09:59.437Z,76.96
2019-04-01T12:10:59.369Z,77.28
2019-04-01T12:11:59.262Z,78.01
2019-04-01T12:12:59.905Z,77.82
2019-04-01T12:13:59.192Z,77.06
2019-04-01T12:14:59.001Z,79.64
2019-04-01T12:15:58.960Z,77.06
2019-04-01T12:16:58.820Z,77.53
2019-04-01T12:17:58.734Z,77.92
2019-04-01T12:18:58.644Z,77.34
2019-04-01T12:19:58.556Z,77.15
2019-04-01T12:20:58.596Z,76.20
2019-04-01T12:21:58.381Z,77.15
2019-04-01T12:22:58.290Z,76.57
2019-04-01T12:23:58.203Z,77.50
2019-04-01T12:24:58.110Z,77.53
2019-04-01T12:25:58.041Z,78.14
2019-04-01T12:26:58.059Z,77.76
2019-04-01T12:27:57.847Z,76.62
2019-04-01T12:28:57.758Z,77.76
2019-04-01T12:29:57.670Z,76.71
2019-04-01T12:30:57.629Z,77.97
2019-04-01T12:31:59.670Z,78.83
2019-04-01T12:32:57.402Z,79.69
2019-04-01T12:33:57.312Z,80.07
2019-04-01T12:34:57.226Z,80.04
2019-04-01T12:35:57.152Z,79.85
2019-04-01T12:36:57.048Z,80.07
2019-04-01T12:37:56.958Z,79.75
2019-04-01T12:38:56.872Z,78.64
2019-04-01T12:39:56.781Z,78.11
2019-04-01T12:40:56.712Z,78.58
2019-04-01T12:41:56.603Z,77.87
2019-04-01T12:42:56.520Z,78.55
2019-04-01T12:43:56.424Z,78.99
2019-04-01T12:44:56.335Z,79.02
2019-04-01T12:45:56.264Z,79.22
2019-04-01T12:46:56.158Z,79.16
2019-04-01T12:47:56.067Z,78.78
2019-04-01T12:48:55.996Z,77.78
2019-04-01T12:49:55.890Z,77.97
2019-04-01T12:50:55.815Z,77.92